createdAt,value
2018-12-31T00:01:45.576Z,6.00
2018-12-31T00:04:49.022Z,6.00
2018-12-31T00:07:52.465Z,6.00
2018-12-31T00:10:55.880Z,6.10
2018-12-31T00:13:59.313Z,6.10
2018-12-31T00:17:02.749Z,6.10
2018-12-31T00:20:06.187Z,6.10
2018-12-31T00:23:09.628Z,6.10
2018-12-31T00:26:13.060Z,6.10
2018-12-31T00:29:16.472Z,6.00
2018-12-31T00:32:19.912Z,6.00
2018-12-31T00:35:23.324Z,6.00
2018-12-31T00:38:26.780Z,6.00
2018-12-31T00:41:30.169Z,6.10
2018-12-31T00:44:33.612Z,6.10
2018-12-31T00:47:37.052Z,6.00
2018-12-31T00:50:40.453Z,6.00
2018-12-31T00:53:43.901Z,6.00
2018-12-31T00:56:47.345Z,5.90
2018-12-31T00:59:50.752Z,5.90
2018-12-31T01:02:54.197Z,5.90
2018-12-31T01:05:57.616Z,5.90
2018-12-31T01:09:01.053Z,5.90
2018-12-31T01:12:04.468Z,5.90
2018-12-31T01:15:07.988Z,6.00
2018-12-31T01:18:11.408Z,6.00
2018-12-31T01:21:14.845Z,6.00
2018-12-31T01:24:18.260Z,6.00
2018-12-31T01:27:21.704Z,6.00
2018-12-31T01:30:25.120Z,6.00
2018-12-31T01:33:28.558Z,5.90
2018-12-31T01:36:31.996Z,5.90
2018-12-31T01:39:35.413Z,5.90
2018-12-31T01:42:38.855Z,5.90
2018-12-31T01:45:42.271Z,5.90
2018-12-31T01:48:45.713Z,5.90
2018-12-31T01:51:49.148Z,5.90
2018-12-31T01:54:52.589Z,5.90
2018-12-31T01:57:56.024Z,5.90
2018-12-31T02:00:59.456Z,5.90
2018-12-31T02:04:02.904Z,5.90
2018-12-31T02:07:06.333Z,5.90
2018-12-31T02:10:09.749Z,5.90
2018-12-31T02:13:13.180Z,6.00
2018-12-31T02:16:16.613Z,6.00
2018-12-31T02:19:20.028Z,6.00
2018-12-31T02:22:23.464Z,6.00
2018-12-31T02:25:26.901Z,6.00
2018-12-31T02:28:30.307Z,6.00
2018-12-31T02:31:33.756Z,6.10
2018-12-31T02:34:37.163Z,6.10
2018-12-31T02:37:40.600Z,6.10
2018-12-31T02:40:44.039Z,6.10
2018-12-31T02:43:47.444Z,6.10
2018-12-31T02:46:50.891Z,6.10
2018-12-31T02:49:54.317Z,6.20
2018-12-31T02:52:57.754Z,6.20
2018-12-31T02:56:01.184Z,6.20
2018-12-31T02:59:04.591Z,6.20
2018-12-31T03:02:08.042Z,6.20
2018-12-31T03:05:11.439Z,6.20
2018-12-31T03:08:14.859Z,6.20
2018-12-31T03:11:18.276Z,6.20
2018-12-31T03:14:21.715Z,6.20
2018-12-31T03:17:25.128Z,6.20
2018-12-31T03:20:28.549Z,6.20
2018-12-31T03:23:31.993Z,6.20
2018-12-31T03:26:35.405Z,6.20
2018-12-31T03:29:38.851Z,6.30
2018-12-31T03:32:42.278Z,6.30
2018-12-31T03:35:45.724Z,6.30
2018-12-31T03:38:49.147Z,6.30
2018-12-31T03:41:52.580Z,6.30
2018-12-31T03:44:56.013Z,6.30
2018-12-31T03:47:59.425Z,6.30
2018-12-31T03:51:02.877Z,6.30
2018-12-31T03:54:06.280Z,6.30
2018-12-31T03:57:09.717Z,6.30
2018-12-31T04:00:13.129Z,6.30
2018-12-31T04:03:16.573Z,6.30
2018-12-31T04:06:20.017Z,6.40
2018-12-31T04:09:23.428Z,6.30
2018-12-31T04:12:26.945Z,6.40
2018-12-31T04:15:30.360Z,6.40
2018-12-31T04:18:33.792Z,6.40
2018-12-31T04:21:37.227Z,6.40
2018-12-31T04:24:40.659Z,6.40
2018-12-31T04:27:45.738Z,6.40
2018-12-31T04:30:49.147Z,6.30
2018-12-31T04:33:52.581Z,6.30
2018-12-31T04:36:56.011Z,6.30
2018-12-31T04:39:59.427Z,6.30
2018-12-31T04:43:02.856Z,6.30
2018-12-31T04:46:06.296Z,6.40
2018-12-31T04:49:09.703Z,6.40
2018-12-31T04:52:13.140Z,6.40
2018-12-31T04:55:16.545Z,6.40
2018-12-31T04:58:23.131Z,6.40
2018-12-31T05:01:25.129Z,6.30
2018-12-31T05:04:28.574Z,6.40
2018-12-31T05:07:31.980Z,6.40
2018-12-31T05:10:35.416Z,6.30
2018-12-31T05:13:38.833Z,6.30
2018-12-31T05:16:42.273Z,6.40
2018-12-31T05:19:45.675Z,6.40
2018-12-31T05:22:49.118Z,6.40
2018-12-31T05:25:52.542Z,6.40
2018-12-31T05:28:55.979Z,6.50
2018-12-31T05:31:59.393Z,6.40
2018-12-31T05:35:02.836Z,6.40
2018-12-31T05:38:06.268Z,6.40
2018-12-31T05:41:09.704Z,6.40
2018-12-31T05:44:13.209Z,6.40
2018-12-31T05:47:16.648Z,6.40
2018-12-31T05:50:20.065Z,6.40
2018-12-31T05:53:23.491Z,6.40
2018-12-31T05:56:26.900Z,6.40
2018-12-31T05:59:30.336Z,6.40
2018-12-31T06:02:33.771Z,6.40
2018-12-31T06:05:37.214Z,6.40
2018-12-31T06:08:40.624Z,6.50
2018-12-31T06:11:44.069Z,6.50
2018-12-31T06:14:47.498Z,6.50
2018-12-31T06:17:50.942Z,6.50
2018-12-31T06:20:54.344Z,6.50
2018-12-31T06:23:57.780Z,6.50
2018-12-31T06:27:01.222Z,6.50
2018-12-31T06:30:06.187Z,6.50
2018-12-31T06:33:09.600Z,6.50
2018-12-31T06:36:13.028Z,6.50
2018-12-31T06:39:16.443Z,6.50
2018-12-31T06:42:19.875Z,6.60
2018-12-31T06:45:23.305Z,6.50
2018-12-31T06:48:26.749Z,6.60
2018-12-31T06:51:30.180Z,6.60
2018-12-31T06:54:33.614Z,6.50
2018-12-31T06:57:37.027Z,6.50
2018-12-31T07:00:40.460Z,6.60
2018-12-31T07:03:43.863Z,6.60
2018-12-31T07:06:47.299Z,6.60
2018-12-31T07:09:50.771Z,6.60
2018-12-31T07:12:54.191Z,6.60
2018-12-31T07:15:57.591Z,6.60
2018-12-31T07:19:01.020Z,6.60
2018-12-31T07:22:04.451Z,6.60
2018-12-31T07:25:07.877Z,6.60
2018-12-31T07:28:11.303Z,6.60
2018-12-31T07:31:14.749Z,6.60
2018-12-31T07:34:18.164Z,6.60
2018-12-31T07:37:21.588Z,6.60
2018-12-31T07:40:24.995Z,6.60
2018-12-31T07:43:28.430Z,6.60
2018-12-31T07:46:31.841Z,6.60
2018-12-31T07:49:35.279Z,6.60
2018-12-31T07:52:38.713Z,6.60
2018-12-31T07:55:42.128Z,6.60
2018-12-31T07:58:45.555Z,6.70
2018-12-31T08:01:48.971Z,6.70
2018-12-31T08:04:52.397Z,6.70
2018-12-31T08:07:55.832Z,6.80
2018-12-31T08:10:59.248Z,6.80
2018-12-31T08:14:02.684Z,6.80
2018-12-31T08:17:06.124Z,6.90
2018-12-31T08:20:09.532Z,6.90
2018-12-31T08:23:12.964Z,6.90
2018-12-31T08:26:16.384Z,6.90
2018-12-31T08:29:19.818Z,6.90
2018-12-31T08:32:23.229Z,6.90
2018-12-31T08:35:26.672Z,7.00
2018-12-31T08:38:30.101Z,7.00
2018-12-31T08:41:33.514Z,7.00
2018-12-31T08:44:36.951Z,7.00
2018-12-31T08:47:40.364Z,7.00
2018-12-31T08:50:43.809Z,7.00
2018-12-31T08:53:47.228Z,6.90
2018-12-31T08:56:50.648Z,6.90
2018-12-31T08:59:54.067Z,7.00
2018-12-31T09:02:57.496Z,7.00
2018-12-31T09:06:00.932Z,7.00
2018-12-31T09:09:06.097Z,7.00
2018-12-31T09:12:09.532Z,7.10
2018-12-31T09:15:14.645Z,7.20
2018-12-31T09:18:18.151Z,7.20
2018-12-31T09:21:21.579Z,7.20
2018-12-31T09:24:25.024Z,7.30
2018-12-31T09:27:28.463Z,7.30
2018-12-31T09:30:31.892Z,7.30
2018-12-31T09:33:35.317Z,7.30
2018-12-31T09:36:38.744Z,7.30
2018-12-31T09:39:42.148Z,7.40
2018-12-31T09:42:45.614Z,7.40
2018-12-31T09:45:49.011Z,7.40
2018-12-31T09:48:52.431Z,7.40
2018-12-31T09:51:55.855Z,7.40
2018-12-31T09:54:59.265Z,7.50
2018-12-31T09:58:02.704Z,7.50
2018-12-31T10:01:06.118Z,7.60
2018-12-31T10:04:09.536Z,7.70
2018-12-31T10:07:12.972Z,7.70
2018-12-31T10:10:16.377Z,7.80
2018-12-31T10:13:19.807Z,7.80
2018-12-31T10:16:23.230Z,7.90
2018-12-31T10:19:26.636Z,8.00
2018-12-31T10:22:30.074Z,8.00
2018-12-31T10:25:33.497Z,8.00
2018-12-31T10:28:36.927Z,8.00
2018-12-31T10:31:40.336Z,8.10
2018-12-31T10:34:43.780Z,8.10
2018-12-31T10:37:47.189Z,8.10
2018-12-31T10:40:50.621Z,8.10
2018-12-31T10:43:54.057Z,8.10
2018-12-31T10:46:57.489Z,8.00
2018-12-31T10:50:00.967Z,8.00
2018-12-31T10:53:04.405Z,8.00
2018-12-31T10:56:07.857Z,8.00
2018-12-31T10:59:11.264Z,8.10
2018-12-31T11:02:14.704Z,8.20
2018-12-31T11:05:18.121Z,8.30
2018-12-31T11:08:21.548Z,8.40
2018-12-31T11:11:24.977Z,8.40
2018-12-31T11:14:28.385Z,8.40
2018-12-31T11:17:31.809Z,8.40
2018-12-31T11:20:35.212Z,8.40
2018-12-31T11:23:38.632Z,8.40
2018-12-31T11:26:42.132Z,8.40
2018-12-31T11:29:45.550Z,8.30
2018-12-31T11:32:48.980Z,8.30
2018-12-31T11:35:52.388Z,8.30
2018-12-31T11:38:55.816Z,8.30
2018-12-31T11:41:59.221Z,8.40
2018-12-31T11:45:02.672Z,8.40
2018-12-31T11:48:06.068Z,8.50
2018-12-31T11:51:09.496Z,8.50
2018-12-31T11:54:12.930Z,8.50
2018-12-31T11:57:16.338Z,8.50
2018-12-31T12:00:19.768Z,8.50
2018-12-31T12:03:23.196Z,8.50
2018-12-31T12:06:26.599Z,8.50
2018-12-31T12:09:30.030Z,8.50
2018-12-31T12:12:33.469Z,8.50
2018-12-31T12:15:36.899Z,8.50
2018-12-31T12:18:40.372Z,8.50
2018-12-31T12:21:43.776Z,8.60
2018-12-31T12:24:47.201Z,8.60
2018-12-31T12:27:50.635Z,8.60
2018-12-31T12:30:54.073Z,8.70
2018-12-31T12:33:57.480Z,8.60
2018-12-31T12:37:00.916Z,8.60
2018-12-31T12:40:05.360Z,8.70
2018-12-31T12:43:08.758Z,8.70
2018-12-31T12:46:12.187Z,8.80
2018-12-31T12:49:15.600Z,8.80
2018-12-31T12:52:19.016Z,8.80
2018-12-31T12:55:22.420Z,8.70
2018-12-31T12:58:25.846Z,8.60
2018-12-31T13:01:29.359Z,8.50
2018-12-31T13:04:32.762Z,8.50
2018-12-31T13:07:36.196Z,8.50
2018-12-31T13:10:39.596Z,8.50
2018-12-31T13:13:43.024Z,8.50
2018-12-31T13:16:46.434Z,8.50
2018-12-31T13:19:51.396Z,8.50
2018-12-31T13:22:54.974Z,8.60
2018-12-31T13:25:58.410Z,8.60
2018-12-31T13:29:01.833Z,8.60
2018-12-31T13:32:05.247Z,8.60
2018-12-31T13:35:08.670Z,8.60
2018-12-31T13:38:12.109Z,8.60
2018-12-31T13:41:15.551Z,8.60
2018-12-31T13:44:19.323Z,8.60
2018-12-31T13:47:22.763Z,8.60
2018-12-31T13:50:26.168Z,8.60
2018-12-31T13:53:31.411Z,8.60
2018-12-31T13:56:34.732Z,8.60
2018-12-31T13:59:38.168Z,8.50
2018-12-31T14:02:41.587Z,8.50
2018-12-31T14:05:45.297Z,8.50
2018-12-31T14:08:49.546Z,8.50
2018-12-31T14:11:53.024Z,8.50
2018-12-31T14:14:56.470Z,8.50
2018-12-31T14:17:59.873Z,8.50
2018-12-31T14:21:03.306Z,8.60
2018-12-31T14:24:06.727Z,8.60
2018-12-31T14:27:10.424Z,8.50
2018-12-31T14:30:13.852Z,8.50
2018-12-31T14:33:17.381Z,8.50
2018-12-31T14:36:20.807Z,8.50
2018-12-31T14:39:24.210Z,8.50
2018-12-31T14:42:27.628Z,8.50
2018-12-31T14:45:31.065Z,8.40
2018-12-31T14:48:34.951Z,8.40
2018-12-31T14:51:38.381Z,8.50
2018-12-31T14:54:41.784Z,8.50
2018-12-31T14:57:45.221Z,8.50
2018-12-31T15:00:48.628Z,8.40
2018-12-31T15:03:52.060Z,8.40
2018-12-31T15:06:55.556Z,8.40
2018-12-31T15:09:58.964Z,8.40
2018-12-31T15:13:02.400Z,8.40
2018-12-31T15:16:05.841Z,8.30
2018-12-31T15:19:09.266Z,8.40
2018-12-31T15:22:12.675Z,8.40
2018-12-31T15:25:16.104Z,8.40
2018-12-31T15:28:19.535Z,8.30
2018-12-31T15:31:22.952Z,8.30
2018-12-31T15:34:26.372Z,8.40
2018-12-31T15:37:29.810Z,8.30
2018-12-31T15:40:33.479Z,8.30
2018-12-31T15:43:36.909Z,8.30
2018-12-31T15:46:40.345Z,8.30
2018-12-31T15:49:43.749Z,8.20
2018-12-31T15:52:47.193Z,8.20
2018-12-31T15:55:50.587Z,8.20
2018-12-31T15:58:54.008Z,8.20
2018-12-31T16:01:57.419Z,8.10
2018-12-31T16:05:01.573Z,8.10
2018-12-31T16:08:05.143Z,8.10
2018-12-31T16:11:08.568Z,8.10
2018-12-31T16:14:11.996Z,8.10
2018-12-31T16:17:15.428Z,8.10
2018-12-31T16:20:20.378Z,8.10
2018-12-31T16:23:24.903Z,8.10
2018-12-31T16:26:28.436Z,8.10
2018-12-31T16:29:31.868Z,8.10
2018-12-31T16:32:35.307Z,8.10
2018-12-31T16:35:38.708Z,8.20
2018-12-31T16:38:42.146Z,8.20
2018-12-31T16:41:45.576Z,8.20
2018-12-31T16:44:49.004Z,8.30
2018-12-31T16:47:52.432Z,8.30
2018-12-31T16:50:55.871Z,8.30
2018-12-31T16:53:59.680Z,8.30
2018-12-31T16:57:03.108Z,8.40
2018-12-31T17:00:07.659Z,8.40
2018-12-31T17:03:11.088Z,8.40
2018-12-31T17:06:14.501Z,8.30
2018-12-31T17:09:17.924Z,8.30
2018-12-31T17:12:21.368Z,8.20
2018-12-31T17:15:24.775Z,8.10
2018-12-31T17:18:28.230Z,8.10
2018-12-31T17:21:31.628Z,8.10
2018-12-31T17:24:35.349Z,8.10
2018-12-31T17:27:38.751Z,8.10
2018-12-31T17:30:42.186Z,8.10
2018-12-31T17:33:45.592Z,8.10
2018-12-31T17:36:49.029Z,8.10
2018-12-31T17:39:52.436Z,8.00
2018-12-31T17:42:55.889Z,8.10
2018-12-31T17:45:59.379Z,8.10
2018-12-31T17:49:02.813Z,8.10
2018-12-31T17:52:06.246Z,8.10
2018-12-31T17:55:10.636Z,8.20
2018-12-31T17:58:14.073Z,8.10
2018-12-31T18:01:17.489Z,8.00
2018-12-31T18:04:20.921Z,8.10
2018-12-31T18:07:24.332Z,8.10
2018-12-31T18:10:27.763Z,8.10
2018-12-31T18:13:31.218Z,8.10
2018-12-31T18:16:35.004Z,8.00
2018-12-31T18:19:38.428Z,8.00
2018-12-31T18:22:41.863Z,8.00
2018-12-31T18:25:45.286Z,7.90
2018-12-31T18:28:48.711Z,7.90
2018-12-31T18:31:52.216Z,7.90
2018-12-31T18:34:55.708Z,7.90
2018-12-31T18:37:59.136Z,7.90
2018-12-31T18:41:02.560Z,7.90
2018-12-31T18:44:05.997Z,7.90
2018-12-31T18:47:09.409Z,7.90
2018-12-31T18:50:12.848Z,8.00
2018-12-31T18:53:16.303Z,8.00
2018-12-31T18:56:19.708Z,8.00
2018-12-31T18:59:23.148Z,7.90
2018-12-31T19:02:26.591Z,8.00
2018-12-31T19:05:30.028Z,8.00
2018-12-31T19:08:33.842Z,8.00
2018-12-31T19:11:37.259Z,8.10
2018-12-31T19:14:40.697Z,8.10
2018-12-31T19:17:44.100Z,8.10
2018-12-31T19:20:47.533Z,8.10
2018-12-31T19:23:50.969Z,8.10
2018-12-31T19:26:54.401Z,8.10
2018-12-31T19:29:57.837Z,8.10
2018-12-31T19:33:01.252Z,8.10
2018-12-31T19:36:04.692Z,8.10
2018-12-31T19:39:08.381Z,8.00
2018-12-31T19:42:11.816Z,8.00
2018-12-31T19:45:15.248Z,7.90
2018-12-31T19:48:18.660Z,8.00
2018-12-31T19:51:22.098Z,8.00
2018-12-31T19:54:25.512Z,8.00
2018-12-31T19:57:28.955Z,8.00
2018-12-31T20:00:32.393Z,8.00
2018-12-31T20:03:35.813Z,7.90
2018-12-31T20:06:39.249Z,7.90
2018-12-31T20:09:43.055Z,7.90
2018-12-31T20:12:46.482Z,7.90
2018-12-31T20:15:49.929Z,7.80
2018-12-31T20:18:53.356Z,7.90
2018-12-31T20:21:56.801Z,7.90
2018-12-31T20:25:00.334Z,7.90
2018-12-31T20:28:03.852Z,8.00
2018-12-31T20:31:07.279Z,7.90
2018-12-31T20:34:10.781Z,7.90
2018-12-31T20:37:14.187Z,7.90
2018-12-31T20:40:17.620Z,7.90
2018-12-31T20:43:21.039Z,7.90
2018-12-31T20:46:24.475Z,7.90
2018-12-31T20:49:28.333Z,7.90
2018-12-31T20:52:31.888Z,7.90
2018-12-31T20:55:35.296Z,7.90
2018-12-31T20:58:38.904Z,7.90
2018-12-31T21:01:42.347Z,8.00
2018-12-31T21:04:45.772Z,7.90
2018-12-31T21:07:49.211Z,7.90
2018-12-31T21:10:52.619Z,8.00
2018-12-31T21:13:56.060Z,7.90
2018-12-31T21:16:59.533Z,7.90
2018-12-31T21:20:03.000Z,7.90
2018-12-31T21:23:06.572Z,7.90
2018-12-31T21:26:10.142Z,7.90
2018-12-31T21:29:13.904Z,7.90
2018-12-31T21:32:17.521Z,7.90
2018-12-31T21:35:21.018Z,7.90
2018-12-31T21:38:24.436Z,8.00
2018-12-31T21:41:27.939Z,7.90
2018-12-31T21:44:31.582Z,7.90
2018-12-31T21:47:35.159Z,7.80
2018-12-31T21:50:38.634Z,7.90
2018-12-31T21:53:42.108Z,7.90
2018-12-31T21:56:45.608Z,7.90
2018-12-31T21:59:49.404Z,7.90
2018-12-31T22:02:56.958Z,7.90
2018-12-31T22:05:58.040Z,7.90
2018-12-31T22:09:01.520Z,7.90
2018-12-31T22:12:04.960Z,7.90
2018-12-31T22:15:09.211Z,7.90
2018-12-31T22:18:12.644Z,7.90
2018-12-31T22:21:16.176Z,7.90
2018-12-31T22:24:19.676Z,7.90
2018-12-31T22:27:23.136Z,7.90
2018-12-31T22:30:26.971Z,7.90
2018-12-31T22:33:30.423Z,7.90
2018-12-31T22:36:34.016Z,7.90
2018-12-31T22:39:37.502Z,7.90
2018-12-31T22:42:41.088Z,7.90
2018-12-31T22:45:44.592Z,7.90
2018-12-31T22:48:48.081Z,7.90
2018-12-31T22:51:51.613Z,7.90
2018-12-31T22:54:55.084Z,7.80
2018-12-31T22:57:58.617Z,7.80
2018-12-31T23:01:02.200Z,7.80
2018-12-31T23:04:05.723Z,7.90
2018-12-31T23:07:09.271Z,7.90
2018-12-31T23:10:12.722Z,8.00
2018-12-31T23:13:16.298Z,7.90
2018-12-31T23:16:19.884Z,7.80
2018-12-31T23:19:23.319Z,7.80
2018-12-31T23:22:27.155Z,7.90
2018-12-31T23:25:30.580Z,7.80
2018-12-31T23:28:34.072Z,7.80
2018-12-31T23:31:37.665Z,7.80
2018-12-31T23:34:41.153Z,7.80
2018-12-31T23:37:44.742Z,7.70
2018-12-31T23:40:48.193Z,7.70
2018-12-31T23:43:51.757Z,7.70
2018-12-31T23:46:55.362Z,7.60
2018-12-31T23:49:58.779Z,7.60
2018-12-31T23:53:02.618Z,7.60
2018-12-31T23:56:06.080Z,7.60
2018-12-31T23:59:09.508Z,7.60
